sensor_id;sensor_type;location;lat;lon;timestamp;P1;durP1;ratioP1;P2;durP2;ratioP2
13698;SDS011;6921;53.642;9.956;2022-12-07T00:00:23;25.07;;;16.13;;
13698;SDS011;6921;53.642;9.956;2022-12-07T00:02:27;25.37;;;16.20;;
13698;SDS011;6921;53.642;9.956;2022-12-07T00:04:30;27.13;;;16.73;;
13698;SDS011;6921;53.642;9.956;2022-12-07T00:06:35;27.97;;;17.10;;
13698;SDS011;6921;53.642;9.956;2022-12-07T00:08:39;25.30;;;16.33;;
13698;SDS011;6921;53.642;9.956;2022-12-07T00:10:42;28.97;;;16.50;;
13698;SDS011;6921;53.642;9.956;2022-12-07T00:12:45;26.03;;;17.03;;
13698;SDS011;6921;53.642;9.956;2022-12-07T00:14:49;27.93;;;17.73;;
13698;SDS011;6921;53.642;9.956;2022-12-07T00:16:52;25.87;;;17.03;;
13698;SDS011;6921;53.642;9.956;2022-12-07T00:18:55;31.33;;;17.93;;
13698;SDS011;6921;53.642;9.956;2022-12-07T00:20:59;30.47;;;17.17;;
13698;SDS011;6921;53.642;9.956;2022-12-07T00:23:04;27.57;;;17.23;;
13698;SDS011;6921;53.642;9.956;2022-12-07T00:25:08;30.77;;;18.63;;
13698;SDS011;6921;53.642;9.956;2022-12-07T00:27:11;28.23;;;18.93;;
13698;SDS011;6921;53.642;9.956;2022-12-07T00:29:15;33.23;;;19.27;;
13698;SDS011;6921;53.642;9.956;2022-12-07T00:31:20;33.33;;;18.67;;
13698;SDS011;6921;53.642;9.956;2022-12-07T00:33:24;31.67;;;19.77;;
13698;SDS011;6921;53.642;9.956;2022-12-07T00:35:29;35.17;;;19.20;;
13698;SDS011;6921;53.642;9.956;2022-12-07T00:37:33;30.60;;;18.60;;
13698;SDS011;6921;53.642;9.956;2022-12-07T00:39:37;30.57;;;19.33;;
13698;SDS011;6921;53.642;9.956;2022-12-07T00:41:41;30.93;;;19.00;;
13698;SDS011;6921;53.642;9.956;2022-12-07T00:43:44;29.80;;;18.67;;
13698;SDS011;6921;53.642;9.956;2022-12-07T00:45:48;28.03;;;17.10;;
13698;SDS011;6921;53.642;9.956;2022-12-07T00:47:51;30.37;;;18.17;;
13698;SDS011;6921;53.642;9.956;2022-12-07T00:49:55;31.27;;;18.00;;
13698;SDS011;6921;53.642;9.956;2022-12-07T00:51:58;28.90;;;18.60;;
13698;SDS011;6921;53.642;9.956;2022-12-07T00:54:01;27.83;;;17.73;;
13698;SDS011;6921;53.642;9.956;2022-12-07T00:56:06;30.77;;;19.03;;
13698;SDS011;6921;53.642;9.956;2022-12-07T00:58:10;29.73;;;17.63;;
13698;SDS011;6921;53.642;9.956;2022-12-07T01:00:14;30.37;;;17.10;;
13698;SDS011;6921;53.642;9.956;2022-12-07T01:02:17;26.93;;;16.83;;
13698;SDS011;6921;53.642;9.956;2022-12-07T01:04:20;31.40;;;16.70;;
13698;SDS011;6921;53.642;9.956;2022-12-07T01:06:24;28.80;;;16.53;;
13698;SDS011;6921;53.642;9.956;2022-12-07T01:08:28;32.83;;;16.60;;
13698;SDS011;6921;53.642;9.956;2022-12-07T01:10:31;30.20;;;16.73;;
13698;SDS011;6921;53.642;9.956;2022-12-07T01:12:36;25.73;;;15.47;;
13698;SDS011;6921;53.642;9.956;2022-12-07T01:14:41;23.73;;;14.33;;
13698;SDS011;6921;53.642;9.956;2022-12-07T01:16:44;26.17;;;13.97;;
13698;SDS011;6921;53.642;9.956;2022-12-07T01:18:48;28.63;;;15.73;;
13698;SDS011;6921;53.642;9.956;2022-12-07T01:20:58;25.97;;;14.40;;
13698;SDS011;6921;53.642;9.956;2022-12-07T01:23:02;25.33;;;13.40;;
13698;SDS011;6921;53.642;9.956;2022-12-07T01:25:06;24.50;;;14.07;;
13698;SDS011;6921;53.642;9.956;2022-12-07T01:27:09;24.10;;;13.67;;
13698;SDS011;6921;53.642;9.956;2022-12-07T01:29:14;24.70;;;14.23;;
13698;SDS011;6921;53.642;9.956;2022-12-07T01:31:18;23.10;;;13.30;;
13698;SDS011;6921;53.642;9.956;2022-12-07T01:33:21;25.13;;;14.13;;
13698;SDS011;6921;53.642;9.956;2022-12-07T01:35:25;22.93;;;12.60;;
13698;SDS011;6921;53.642;9.956;2022-12-07T01:37:28;21.57;;;13.57;;
13698;SDS011;6921;53.642;9.956;2022-12-07T01:39:36;22.10;;;12.80;;
13698;SDS011;6921;53.642;9.956;2022-12-07T01:41:40;26.50;;;13.00;;
13698;SDS011;6921;53.642;9.956;2022-12-07T01:46:04;23.20;;;12.43;;
13698;SDS011;6921;53.642;9.956;2022-12-07T01:48:07;20.67;;;11.97;;
13698;SDS011;6921;53.642;9.956;2022-12-07T01:50:12;24.87;;;12.30;;
13698;SDS011;6921;53.642;9.956;2022-12-07T01:52:17;22.30;;;13.17;;
13698;SDS011;6921;53.642;9.956;2022-12-07T01:54:22;22.60;;;12.87;;
13698;SDS011;6921;53.642;9.956;2022-12-07T01:56:26;22.30;;;11.83;;
13698;SDS011;6921;53.642;9.956;2022-12-07T01:58:30;21.53;;;12.43;;
13698;SDS011;6921;53.642;9.956;2022-12-07T02:00:33;26.43;;;12.20;;
13698;SDS011;6921;53.642;9.956;2022-12-07T02:02:39;19.27;;;11.43;;
13698;SDS011;6921;53.642;9.956;2022-12-07T02:04:44;23.37;;;11.53;;
13698;SDS011;6921;53.642;9.956;2022-12-07T02:06:48;20.13;;;11.93;;
13698;SDS011;6921;53.642;9.956;2022-12-07T02:08:51;23.77;;;11.43;;
13698;SDS011;6921;53.642;9.956;2022-12-07T02:10:55;19.07;;;10.93;;
13698;SDS011;6921;53.642;9.956;2022-12-07T02:12:59;17.90;;;10.50;;
13698;SDS011;6921;53.642;9.956;2022-12-07T02:15:04;17.33;;;10.07;;
13698;SDS011;6921;53.642;9.956;2022-12-07T02:17:10;20.33;;;9.83;;
13698;SDS011;6921;53.642;9.956;2022-12-07T02:21:53;16.07;;;9.03;;
13698;SDS011;6921;53.642;9.956;2022-12-07T02:24:08;18.67;;;9.33;;
13698;SDS011;6921;53.642;9.956;2022-12-07T02:26:23;17.93;;;9.90;;
13698;SDS011;6921;53.642;9.956;2022-12-07T02:28:33;16.63;;;8.73;;
13698;SDS011;6921;53.642;9.956;2022-12-07T02:30:40;14.73;;;9.27;;
13698;SDS011;6921;53.642;9.956;2022-12-07T02:32:48;15.70;;;8.43;;
13698;SDS011;6921;53.642;9.956;2022-12-07T02:34:55;18.27;;;8.83;;
13698;SDS011;6921;53.642;9.956;2022-12-07T02:37:01;16.63;;;8.27;;
13698;SDS011;6921;53.642;9.956;2022-12-07T02:39:08;15.00;;;7.70;;
13698;SDS011;6921;53.642;9.956;2022-12-07T02:41:12;16.93;;;8.20;;
13698;SDS011;6921;53.642;9.956;2022-12-07T02:43:16;14.80;;;7.97;;
13698;SDS011;6921;53.642;9.956;2022-12-07T02:45:21;12.63;;;6.70;;
13698;SDS011;6921;53.642;9.956;2022-12-07T02:47:27;14.03;;;6.77;;
13698;SDS011;6921;53.642;9.956;2022-12-07T02:49:31;12.40;;;6.70;;
13698;SDS011;6921;53.642;9.956;2022-12-07T02:51:38;11.87;;;6.00;;
13698;SDS011;6921;53.642;9.956;2022-12-07T02:53:42;11.37;;;5.83;;
13698;SDS011;6921;53.642;9.956;2022-12-07T02:55:46;8.67;;;4.90;;
13698;SDS011;6921;53.642;9.956;2022-12-07T02:57:54;15.00;;;5.40;;
13698;SDS011;6921;53.642;9.956;2022-12-07T03:00:03;7.50;;;4.90;;
13698;SDS011;6921;53.642;9.956;2022-12-07T03:02:10;8.83;;;4.90;;
13698;SDS011;6921;53.642;9.956;2022-12-07T03:04:24;5.87;;;4.30;;
13698;SDS011;6921;53.642;9.956;2022-12-07T03:06:30;10.33;;;4.07;;
13698;SDS011;6921;53.642;9.956;2022-12-07T03:08:39;6.77;;;3.83;;
13698;SDS011;6921;53.642;9.956;2022-12-07T03:10:48;7.93;;;4.20;;
13698;SDS011;6921;53.642;9.956;2022-12-07T03:12:55;7.20;;;3.53;;
13698;SDS011;6921;53.642;9.956;2022-12-07T03:15:03;7.50;;;3.80;;
13698;SDS011;6921;53.642;9.956;2022-12-07T03:17:09;5.87;;;3.00;;
13698;SDS011;6921;53.642;9.956;2022-12-07T03:19:16;4.43;;;2.90;;
13698;SDS011;6921;53.642;9.956;2022-12-07T03:21:22;7.27;;;2.93;;
13698;SDS011;6921;53.642;9.956;2022-12-07T03:23:26;4.77;;;2.57;;
13698;SDS011;6921;53.642;9.956;2022-12-07T03:25:30;4.63;;;2.37;;
13698;SDS011;6921;53.642;9.956;2022-12-07T03:27:34;3.30;;;2.40;;
13698;SDS011;6921;53.642;9.956;2022-12-07T03:29:40;5.13;;;2.67;;
13698;SDS011;6921;53.642;9.956;2022-12-07T03:31:46;4.13;;;2.40;;
13698;SDS011;6921;53.642;9.956;2022-12-07T03:33:52;5.07;;;2.43;;
13698;SDS011;6921;53.642;9.956;2022-12-07T03:35:58;4.07;;;2.43;;
13698;SDS011;6921;53.642;9.956;2022-12-07T03:38:07;3.40;;;2.40;;
13698;SDS011;6921;53.642;9.956;2022-12-07T03:40:13;7.27;;;2.67;;
13698;SDS011;6921;53.642;9.956;2022-12-07T03:42:19;4.33;;;2.10;;
13698;SDS011;6921;53.642;9.956;2022-12-07T03:44:23;6.07;;;2.37;;
13698;SDS011;6921;53.642;9.956;2022-12-07T03:46:28;3.33;;;2.30;;
13698;SDS011;6921;53.642;9.956;2022-12-07T03:48:36;6.23;;;2.70;;
13698;SDS011;6921;53.642;9.956;2022-12-07T03:50:41;4.00;;;2.07;;
13698;SDS011;6921;53.642;9.956;2022-12-07T03:52:47;4.10;;;2.37;;
13698;SDS011;6921;53.642;9.956;2022-12-07T03:54:55;3.83;;;2.30;;
13698;SDS011;6921;53.642;9.956;2022-12-07T03:57:02;3.20;;;2.20;;
13698;SDS011;6921;53.642;9.956;2022-12-07T03:59:06;5.37;;;2.50;;
13698;SDS011;6921;53.642;9.956;2022-12-07T04:01:09;3.53;;;2.33;;
13698;SDS011;6921;53.642;9.956;2022-12-07T04:03:13;5.40;;;2.60;;
13698;SDS011;6921;53.642;9.956;2022-12-07T04:05:16;5.17;;;2.37;;
13698;SDS011;6921;53.642;9.956;2022-12-07T04:07:20;4.07;;;2.73;;
13698;SDS011;6921;53.642;9.956;2022-12-07T04:09:23;6.93;;;2.60;;
13698;SDS011;6921;53.642;9.956;2022-12-07T04:11:28;6.77;;;3.20;;
13698;SDS011;6921;53.642;9.956;2022-12-07T04:13:31;6.80;;;2.80;;
13698;SDS011;6921;53.642;9.956;2022-12-07T04:15:54;4.17;;;3.00;;
13698;SDS011;6921;53.642;9.956;2022-12-07T04:17:58;5.40;;;2.90;;
13698;SDS011;6921;53.642;9.956;2022-12-07T04:20:01;5.00;;;3.00;;
13698;SDS011;6921;53.642;9.956;2022-12-07T04:22:05;7.70;;;3.50;;
13698;SDS011;6921;53.642;9.956;2022-12-07T04:24:09;7.87;;;3.70;;
13698;SDS011;6921;53.642;9.956;2022-12-07T04:26:12;6.07;;;3.10;;
13698;SDS011;6921;53.642;9.956;2022-12-07T04:28:17;6.57;;;3.40;;
13698;SDS011;6921;53.642;9.956;2022-12-07T04:30:20;6.23;;;3.00;;
13698;SDS011;6921;53.642;9.956;2022-12-07T04:32:23;5.17;;;3.17;;
13698;SDS011;6921;53.642;9.956;2022-12-07T04:34:27;6.00;;;3.43;;
13698;SDS011;6921;53.642;9.956;2022-12-07T04:36:30;6.80;;;3.80;;
13698;SDS011;6921;53.642;9.956;2022-12-07T04:38:34;6.50;;;3.43;;
13698;SDS011;6921;53.642;9.956;2022-12-07T04:40:37;5.13;;;3.10;;
13698;SDS011;6921;53.642;9.956;2022-12-07T04:42:40;5.00;;;3.50;;
13698;SDS011;6921;53.642;9.956;2022-12-07T04:44:45;7.40;;;3.20;;
13698;SDS011;6921;53.642;9.956;2022-12-07T04:46:48;6.37;;;3.40;;
13698;SDS011;6921;53.642;9.956;2022-12-07T04:48:52;5.60;;;3.43;;
13698;SDS011;6921;53.642;9.956;2022-12-07T04:50:55;5.13;;;3.60;;
13698;SDS011;6921;53.642;9.956;2022-12-07T04:52:59;8.40;;;3.67;;
13698;SDS011;6921;53.642;9.956;2022-12-07T04:55:02;7.73;;;4.17;;
13698;SDS011;6921;53.642;9.956;2022-12-07T04:57:05;5.63;;;4.10;;
13698;SDS011;6921;53.642;9.956;2022-12-07T04:59:09;5.27;;;3.70;;
13698;SDS011;6921;53.642;9.956;2022-12-07T05:01:14;7.03;;;3.90;;
13698;SDS011;6921;53.642;9.956;2022-12-07T05:03:18;9.23;;;4.27;;
13698;SDS011;6921;53.642;9.956;2022-12-07T05:05:21;6.63;;;3.87;;
13698;SDS011;6921;53.642;9.956;2022-12-07T05:07:25;7.70;;;4.60;;
13698;SDS011;6921;53.642;9.956;2022-12-07T05:09:28;7.40;;;4.50;;
13698;SDS011;6921;53.642;9.956;2022-12-07T05:11:31;10.37;;;4.57;;
13698;SDS011;6921;53.642;9.956;2022-12-07T05:13:40;7.43;;;4.10;;
13698;SDS011;6921;53.642;9.956;2022-12-07T05:15:44;7.77;;;4.50;;
13698;SDS011;6921;53.642;9.956;2022-12-07T05:17:48;8.00;;;4.40;;
13698;SDS011;6921;53.642;9.956;2022-12-07T05:19:53;6.43;;;4.20;;
13698;SDS011;6921;53.642;9.956;2022-12-07T05:21:56;12.90;;;4.80;;
13698;SDS011;6921;53.642;9.956;2022-12-07T05:24:00;7.87;;;4.40;;
13698;SDS011;6921;53.642;9.956;2022-12-07T05:26:03;8.07;;;4.97;;
13698;SDS011;6921;53.642;9.956;2022-12-07T05:28:06;5.80;;;4.43;;
13698;SDS011;6921;53.642;9.956;2022-12-07T05:30:10;7.83;;;4.60;;
13698;SDS011;6921;53.642;9.956;2022-12-07T05:32:13;7.10;;;4.77;;
13698;SDS011;6921;53.642;9.956;2022-12-07T05:34:18;6.37;;;4.50;;
13698;SDS011;6921;53.642;9.956;2022-12-07T05:36:21;7.00;;;4.53;;
13698;SDS011;6921;53.642;9.956;2022-12-07T05:38:25;7.97;;;4.80;;
13698;SDS011;6921;53.642;9.956;2022-12-07T05:40:28;9.47;;;4.33;;
13698;SDS011;6921;53.642;9.956;2022-12-07T05:42:31;7.33;;;4.70;;
13698;SDS011;6921;53.642;9.956;2022-12-07T05:44:34;11.27;;;4.93;;
13698;SDS011;6921;53.642;9.956;2022-12-07T05:46:38;9.03;;;4.83;;
13698;SDS011;6921;53.642;9.956;2022-12-07T05:48:41;9.03;;;4.50;;
13698;SDS011;6921;53.642;9.956;2022-12-07T05:50:48;8.50;;;4.57;;
13698;SDS011;6921;53.642;9.956;2022-12-07T05:52:51;9.90;;;5.27;;
13698;SDS011;6921;53.642;9.956;2022-12-07T05:54:54;7.20;;;5.10;;
13698;SDS011;6921;53.642;9.956;2022-12-07T05:56:58;11.67;;;5.20;;
13698;SDS011;6921;53.642;9.956;2022-12-07T05:59:01;9.33;;;5.30;;
13698;SDS011;6921;53.642;9.956;2022-12-07T06:01:22;9.63;;;6.10;;
13698;SDS011;6921;53.642;9.956;2022-12-07T06:03:26;8.57;;;5.30;;
13698;SDS011;6921;53.642;9.956;2022-12-07T06:05:29;11.23;;;5.33;;
13698;SDS011;6921;53.642;9.956;2022-12-07T06:07:34;8.47;;;5.40;;
13698;SDS011;6921;53.642;9.956;2022-12-07T06:09:37;7.43;;;5.00;;
13698;SDS011;6921;53.642;9.956;2022-12-07T06:11:40;8.50;;;4.87;;
13698;SDS011;6921;53.642;9.956;2022-12-07T06:14:01;8.77;;;5.00;;
13698;SDS011;6921;53.642;9.956;2022-12-07T06:16:04;7.20;;;4.43;;
13698;SDS011;6921;53.642;9.956;2022-12-07T06:18:08;7.87;;;4.77;;
13698;SDS011;6921;53.642;9.956;2022-12-07T06:20:11;6.50;;;4.47;;
13698;SDS011;6921;53.642;9.956;2022-12-07T06:22:15;7.03;;;4.50;;
13698;SDS011;6921;53.642;9.956;2022-12-07T06:24:20;7.27;;;4.70;;
13698;SDS011;6921;53.642;9.956;2022-12-07T06:26:23;8.27;;;4.53;;
13698;SDS011;6921;53.642;9.956;2022-12-07T06:28:26;8.77;;;4.87;;
13698;SDS011;6921;53.642;9.956;2022-12-07T06:30:29;9.10;;;4.60;;
13698;SDS011;6921;53.642;9.956;2022-12-07T06:32:33;7.57;;;4.27;;
13698;SDS011;6921;53.642;9.956;2022-12-07T06:34:36;8.77;;;5.63;;
13698;SDS011;6921;53.642;9.956;2022-12-07T06:36:40;6.50;;;4.43;;
13698;SDS011;6921;53.642;9.956;2022-12-07T06:38:43;8.77;;;4.53;;
13698;SDS011;6921;53.642;9.956;2022-12-07T06:40:47;9.10;;;4.23;;
13698;SDS011;6921;53.642;9.956;2022-12-07T06:42:51;5.93;;;4.57;;
13698;SDS011;6921;53.642;9.956;2022-12-07T06:44:54;10.73;;;4.43;;
13698;SDS011;6921;53.642;9.956;2022-12-07T06:46:57;6.40;;;4.00;;
13698;SDS011;6921;53.642;9.956;2022-12-07T06:49:21;8.07;;;3.60;;
13698;SDS011;6921;53.642;9.956;2022-12-07T06:51:24;11.70;;;4.10;;
13698;SDS011;6921;53.642;9.956;2022-12-07T06:53:27;7.57;;;3.70;;
13698;SDS011;6921;53.642;9.956;2022-12-07T06:55:30;9.13;;;3.90;;
13698;SDS011;6921;53.642;9.956;2022-12-07T06:57:35;8.33;;;4.23;;
13698;SDS011;6921;53.642;9.956;2022-12-07T06:59:38;5.20;;;3.30;;
13698;SDS011;6921;53.642;9.956;2022-12-07T07:01:42;6.73;;;3.80;;
13698;SDS011;6921;53.642;9.956;2022-12-07T07:03:45;7.87;;;3.97;;
13698;SDS011;6921;53.642;9.956;2022-12-07T07:05:49;7.63;;;4.07;;
13698;SDS011;6921;53.642;9.956;2022-12-07T07:07:52;7.17;;;3.90;;
13698;SDS011;6921;53.642;9.956;2022-12-07T07:10:15;5.90;;;3.90;;
13698;SDS011;6921;53.642;9.956;2022-12-07T07:12:19;9.60;;;3.60;;
13698;SDS011;6921;53.642;9.956;2022-12-07T07:14:23;7.80;;;3.20;;
13698;SDS011;6921;53.642;9.956;2022-12-07T07:16:27;8.83;;;2.93;;
13698;SDS011;6921;53.642;9.956;2022-12-07T07:18:30;7.53;;;3.20;;
13698;SDS011;6921;53.642;9.956;2022-12-07T07:20:33;6.53;;;3.07;;
13698;SDS011;6921;53.642;9.956;2022-12-07T07:22:37;4.00;;;2.90;;
13698;SDS011;6921;53.642;9.956;2022-12-07T07:24:40;6.60;;;3.33;;
13698;SDS011;6921;53.642;9.956;2022-12-07T07:26:43;6.63;;;2.73;;
13698;SDS011;6921;53.642;9.956;2022-12-07T07:28:47;3.13;;;2.60;;
13698;SDS011;6921;53.642;9.956;2022-12-07T07:30:51;9.97;;;3.20;;
13698;SDS011;6921;53.642;9.956;2022-12-07T07:32:56;4.50;;;2.40;;
13698;SDS011;6921;53.642;9.956;2022-12-07T07:35:00;8.67;;;2.60;;
13698;SDS011;6921;53.642;9.956;2022-12-07T07:37:03;7.57;;;2.30;;
13698;SDS011;6921;53.642;9.956;2022-12-07T07:39:06;3.93;;;2.27;;
13698;SDS011;6921;53.642;9.956;2022-12-07T07:41:10;6.93;;;2.50;;
13698;SDS011;6921;53.642;9.956;2022-12-07T07:43:13;5.37;;;2.47;;
13698;SDS011;6921;53.642;9.956;2022-12-07T07:45:17;4.33;;;2.43;;
13698;SDS011;6921;53.642;9.956;2022-12-07T07:47:22;8.20;;;2.83;;
13698;SDS011;6921;53.642;9.956;2022-12-07T07:49:25;4.43;;;2.30;;
13698;SDS011;6921;53.642;9.956;2022-12-07T07:51:29;6.07;;;2.73;;
13698;SDS011;6921;53.642;9.956;2022-12-07T07:53:32;4.83;;;2.20;;
13698;SDS011;6921;53.642;9.956;2022-12-07T07:55:35;4.70;;;2.47;;
13698;SDS011;6921;53.642;9.956;2022-12-07T07:57:39;5.17;;;2.37;;
13698;SDS011;6921;53.642;9.956;2022-12-07T07:59:42;3.33;;;2.03;;
13698;SDS011;6921;53.642;9.956;2022-12-07T08:01:46;8.07;;;2.30;;
13698;SDS011;6921;53.642;9.956;2022-12-07T08:03:50;4.20;;;2.10;;
13698;SDS011;6921;53.642;9.956;2022-12-07T08:05:54;2.70;;;1.67;;
13698;SDS011;6921;53.642;9.956;2022-12-07T08:07:57;6.10;;;2.10;;
13698;SDS011;6921;53.642;9.956;2022-12-07T08:10:00;4.07;;;2.00;;
13698;SDS011;6921;53.642;9.956;2022-12-07T08:12:04;5.07;;;1.80;;
13698;SDS011;6921;53.642;9.956;2022-12-07T08:14:07;5.10;;;1.87;;
13698;SDS011;6921;53.642;9.956;2022-12-07T08:16:11;5.23;;;1.93;;
13698;SDS011;6921;53.642;9.956;2022-12-07T08:18:14;3.13;;;2.00;;
13698;SDS011;6921;53.642;9.956;2022-12-07T08:20:19;4.23;;;2.10;;
13698;SDS011;6921;53.642;9.956;2022-12-07T08:22:22;4.97;;;1.90;;
13698;SDS011;6921;53.642;9.956;2022-12-07T08:24:26;9.20;;;2.20;;
13698;SDS011;6921;53.642;9.956;2022-12-07T08:26:29;3.87;;;1.93;;
13698;SDS011;6921;53.642;9.956;2022-12-07T08:28:32;4.97;;;1.97;;
13698;SDS011;6921;53.642;9.956;2022-12-07T08:30:36;3.70;;;2.07;;
13698;SDS011;6921;53.642;9.956;2022-12-07T08:32:39;4.80;;;2.33;;
13698;SDS011;6921;53.642;9.956;2022-12-07T08:34:42;4.70;;;1.80;;
13698;SDS011;6921;53.642;9.956;2022-12-07T08:36:47;5.20;;;1.73;;
13698;SDS011;6921;53.642;9.956;2022-12-07T08:38:50;3.60;;;1.60;;
13698;SDS011;6921;53.642;9.956;2022-12-07T08:41:14;3.63;;;1.80;;
13698;SDS011;6921;53.642;9.956;2022-12-07T08:43:17;3.53;;;1.90;;
13698;SDS011;6921;53.642;9.956;2022-12-07T08:45:21;4.90;;;2.00;;
13698;SDS011;6921;53.642;9.956;2022-12-07T08:47:27;5.70;;;2.03;;
13698;SDS011;6921;53.642;9.956;2022-12-07T08:49:31;5.50;;;1.83;;
13698;SDS011;6921;53.642;9.956;2022-12-07T08:51:35;8.57;;;2.00;;
13698;SDS011;6921;53.642;9.956;2022-12-07T08:53:40;4.80;;;2.27;;
13698;SDS011;6921;53.642;9.956;2022-12-07T08:55:44;5.70;;;1.90;;
13698;SDS011;6921;53.642;9.956;2022-12-07T08:57:47;4.93;;;2.13;;
13698;SDS011;6921;53.642;9.956;2022-12-07T08:59:51;3.77;;;2.13;;
13698;SDS011;6921;53.642;9.956;2022-12-07T09:01:54;4.53;;;2.13;;
13698;SDS011;6921;53.642;9.956;2022-12-07T09:03:57;6.77;;;2.10;;
13698;SDS011;6921;53.642;9.956;2022-12-07T09:06:01;7.50;;;2.00;;
13698;SDS011;6921;53.642;9.956;2022-12-07T09:08:04;6.73;;;2.20;;
13698;SDS011;6921;53.642;9.956;2022-12-07T09:10:10;5.60;;;2.00;;
13698;SDS011;6921;53.642;9.956;2022-12-07T09:12:13;4.73;;;1.70;;
13698;SDS011;6921;53.642;9.956;2022-12-07T09:14:16;6.97;;;2.07;;
13698;SDS011;6921;53.642;9.956;2022-12-07T09:16:20;7.13;;;2.17;;
13698;SDS011;6921;53.642;9.956;2022-12-07T09:18:23;4.50;;;2.17;;
13698;SDS011;6921;53.642;9.956;2022-12-07T09:20:26;3.90;;;1.90;;
13698;SDS011;6921;53.642;9.956;2022-12-07T09:22:30;6.83;;;1.97;;
13698;SDS011;6921;53.642;9.956;2022-12-07T09:24:33;7.10;;;1.80;;
13698;SDS011;6921;53.642;9.956;2022-12-07T09:26:38;6.90;;;1.87;;
13698;SDS011;6921;53.642;9.956;2022-12-07T09:28:41;4.37;;;1.83;;
13698;SDS011;6921;53.642;9.956;2022-12-07T09:30:45;6.07;;;1.90;;
13698;SDS011;6921;53.642;9.956;2022-12-07T09:33:09;9.23;;;1.87;;
13698;SDS011;6921;53.642;9.956;2022-12-07T09:35:12;3.77;;;1.80;;
13698;SDS011;6921;53.642;9.956;2022-12-07T09:37:15;4.90;;;1.63;;
13698;SDS011;6921;53.642;9.956;2022-12-07T09:39:18;4.23;;;1.63;;
13698;SDS011;6921;53.642;9.956;2022-12-07T09:41:22;6.10;;;1.80;;
13698;SDS011;6921;53.642;9.956;2022-12-07T09:43:28;6.83;;;1.90;;
13698;SDS011;6921;53.642;9.956;2022-12-07T09:45:32;5.00;;;1.77;;
13698;SDS011;6921;53.642;9.956;2022-12-07T09:47:39;5.57;;;1.77;;
13698;SDS011;6921;53.642;9.956;2022-12-07T09:49:45;6.77;;;1.73;;
13698;SDS011;6921;53.642;9.956;2022-12-07T09:51:48;3.33;;;1.57;;
13698;SDS011;6921;53.642;9.956;2022-12-07T09:54:02;2.77;;;1.80;;
13698;SDS011;6921;53.642;9.956;2022-12-07T09:56:05;4.93;;;1.73;;
13698;SDS011;6921;53.642;9.956;2022-12-07T09:58:09;5.63;;;1.70;;
13698;SDS011;6921;53.642;9.956;2022-12-07T10:00:17;5.27;;;1.53;;
13698;SDS011;6921;53.642;9.956;2022-12-07T10:02:30;9.03;;;2.17;;
13698;SDS011;6921;53.642;9.956;2022-12-07T10:04:35;3.60;;;1.70;;
13698;SDS011;6921;53.642;9.956;2022-12-07T10:06:40;5.30;;;1.93;;
13698;SDS011;6921;53.642;9.956;2022-12-07T10:08:44;3.90;;;1.60;;
13698;SDS011;6921;53.642;9.956;2022-12-07T10:10:49;4.87;;;1.60;;
13698;SDS011;6921;53.642;9.956;2022-12-07T10:12:57;4.57;;;1.53;;
13698;SDS011;6921;53.642;9.956;2022-12-07T10:15:01;5.83;;;1.53;;
13698;SDS011;6921;53.642;9.956;2022-12-07T10:19:29;6.07;;;1.67;;
13698;SDS011;6921;53.642;9.956;2022-12-07T10:21:33;6.47;;;1.63;;
13698;SDS011;6921;53.642;9.956;2022-12-07T10:23:37;5.27;;;1.70;;
13698;SDS011;6921;53.642;9.956;2022-12-07T10:25:41;2.67;;;1.70;;
13698;SDS011;6921;53.642;9.956;2022-12-07T10:27:44;6.17;;;1.67;;
13698;SDS011;6921;53.642;9.956;2022-12-07T10:30:00;3.97;;;1.53;;
13698;SDS011;6921;53.642;9.956;2022-12-07T10:32:04;4.90;;;1.33;;
13698;SDS011;6921;53.642;9.956;2022-12-07T10:34:14;5.37;;;2.10;;
13698;SDS011;6921;53.642;9.956;2022-12-07T10:36:21;3.37;;;1.10;;
13698;SDS011;6921;53.642;9.956;2022-12-07T10:38:26;6.20;;;1.50;;
13698;SDS011;6921;53.642;9.956;2022-12-07T10:40:32;7.13;;;1.90;;
13698;SDS011;6921;53.642;9.956;2022-12-07T10:42:36;4.67;;;1.60;;
13698;SDS011;6921;53.642;9.956;2022-12-07T10:44:39;5.67;;;2.07;;
13698;SDS011;6921;53.642;9.956;2022-12-07T10:46:59;4.87;;;1.70;;
13698;SDS011;6921;53.642;9.956;2022-12-07T10:49:06;4.97;;;1.70;;
13698;SDS011;6921;53.642;9.956;2022-12-07T10:51:15;2.53;;;1.13;;
13698;SDS011;6921;53.642;9.956;2022-12-07T10:53:32;5.37;;;1.70;;
13698;SDS011;6921;53.642;9.956;2022-12-07T10:55:41;4.60;;;1.30;;
13698;SDS011;6921;53.642;9.956;2022-12-07T10:57:58;4.37;;;1.30;;
13698;SDS011;6921;53.642;9.956;2022-12-07T11:00:08;4.60;;;1.30;;
13698;SDS011;6921;53.642;9.956;2022-12-07T11:02:18;5.90;;;1.43;;
13698;SDS011;6921;53.642;9.956;2022-12-07T11:04:24;10.77;;;1.73;;
13698;SDS011;6921;53.642;9.956;2022-12-07T11:06:33;7.00;;;2.20;;
13698;SDS011;6921;53.642;9.956;2022-12-07T11:08:47;4.33;;;1.13;;
13698;SDS011;6921;53.642;9.956;2022-12-07T11:10:54;5.60;;;1.70;;
13698;SDS011;6921;53.642;9.956;2022-12-07T11:13:04;5.57;;;1.10;;
13698;SDS011;6921;53.642;9.956;2022-12-07T11:15:16;3.43;;;1.20;;
13698;SDS011;6921;53.642;9.956;2022-12-07T11:17:23;5.67;;;1.17;;
13698;SDS011;6921;53.642;9.956;2022-12-07T11:19:34;4.27;;;1.43;;
13698;SDS011;6921;53.642;9.956;2022-12-07T11:21:55;3.53;;;1.00;;
13698;SDS011;6921;53.642;9.956;2022-12-07T11:24:03;3.23;;;0.80;;
13698;SDS011;6921;53.642;9.956;2022-12-07T11:26:10;5.53;;;1.40;;
13698;SDS011;6921;53.642;9.956;2022-12-07T11:28:18;4.03;;;1.20;;
13698;SDS011;6921;53.642;9.956;2022-12-07T11:30:26;3.97;;;1.30;;
13698;SDS011;6921;53.642;9.956;2022-12-07T11:32:38;2.67;;;1.40;;
13698;SDS011;6921;53.642;9.956;2022-12-07T11:34:51;4.67;;;1.30;;
13698;SDS011;6921;53.642;9.956;2022-12-07T11:36:58;4.23;;;1.00;;
13698;SDS011;6921;53.642;9.956;2022-12-07T11:39:10;5.57;;;1.30;;
13698;SDS011;6921;53.642;9.956;2022-12-07T11:41:15;5.10;;;1.20;;
13698;SDS011;6921;53.642;9.956;2022-12-07T11:43:21;3.50;;;1.23;;
13698;SDS011;6921;53.642;9.956;2022-12-07T11:45:26;5.27;;;1.20;;
13698;SDS011;6921;53.642;9.956;2022-12-07T11:47:30;4.43;;;1.10;;
13698;SDS011;6921;53.642;9.956;2022-12-07T11:49:43;4.47;;;1.17;;
13698;SDS011;6921;53.642;9.956;2022-12-07T11:51:48;5.47;;;1.40;;
13698;SDS011;6921;53.642;9.956;2022-12-07T11:53:53;10.53;;;1.50;;
13698;SDS011;6921;53.642;9.956;2022-12-07T11:56:01;5.53;;;1.20;;
13698;SDS011;6921;53.642;9.956;2022-12-07T11:58:10;5.83;;;0.93;;
13698;SDS011;6921;53.642;9.956;2022-12-07T12:00:23;5.97;;;1.23;;
13698;SDS011;6921;53.642;9.956;2022-12-07T12:02:28;3.70;;;0.87;;
13698;SDS011;6921;53.642;9.956;2022-12-07T12:04:40;5.43;;;1.40;;
13698;SDS011;6921;53.642;9.956;2022-12-07T12:06:45;4.90;;;1.43;;
13698;SDS011;6921;53.642;9.956;2022-12-07T12:08:50;7.80;;;1.30;;
13698;SDS011;6921;53.642;9.956;2022-12-07T12:11:22;4.23;;;1.30;;
13698;SDS011;6921;53.642;9.956;2022-12-07T12:16:38;4.40;;;1.33;;
13698;SDS011;6921;53.642;9.956;2022-12-07T12:18:48;5.27;;;1.07;;
13698;SDS011;6921;53.642;9.956;2022-12-07T12:20:55;3.83;;;1.13;;
13698;SDS011;6921;53.642;9.956;2022-12-07T12:23:00;4.17;;;1.27;;
13698;SDS011;6921;53.642;9.956;2022-12-07T12:25:05;4.60;;;1.10;;
13698;SDS011;6921;53.642;9.956;2022-12-07T12:27:15;4.57;;;1.27;;
13698;SDS011;6921;53.642;9.956;2022-12-07T12:29:21;4.37;;;1.37;;
13698;SDS011;6921;53.642;9.956;2022-12-07T12:31:36;5.73;;;1.23;;
13698;SDS011;6921;53.642;9.956;2022-12-07T12:33:43;7.20;;;1.33;;
13698;SDS011;6921;53.642;9.956;2022-12-07T12:35:48;5.43;;;1.30;;
13698;SDS011;6921;53.642;9.956;2022-12-07T12:38:22;6.27;;;1.60;;
13698;SDS011;6921;53.642;9.956;2022-12-07T12:42:53;8.17;;;3.07;;
13698;SDS011;6921;53.642;9.956;2022-12-07T12:47:38;5.90;;;1.70;;
13698;SDS011;6921;53.642;9.956;2022-12-07T12:49:43;4.17;;;1.90;;
13698;SDS011;6921;53.642;9.956;2022-12-07T12:51:46;5.43;;;1.50;;
13698;SDS011;6921;53.642;9.956;2022-12-07T12:53:50;10.37;;;2.00;;
13698;SDS011;6921;53.642;9.956;2022-12-07T12:55:59;4.97;;;1.27;;
13698;SDS011;6921;53.642;9.956;2022-12-07T13:00:32;5.10;;;1.50;;